Taberville, Missouri
Current Conditions -  °F | °C
As of 10:15 AM on Friday 31 Oct 2014 (Local Time) from KGLY Reporting Station
Clear Clear  
Wind Chill: 33°   Ceiling: Unl
Heat Index: 41°   Visibility: 10mi
Dew Point: 27°   Wind: 16mph
Humidity: 57%   Direction: 360°N
Pressure: 30.43"   Gusts: 25mph
Location:  38.0755°N, 94.1669°W
Report Text: KGLY 311515Z AUTO 36014G22KT 10SM CLR 05/M03 A3043 RMK AO2
Loading
Personal Weather Stations






























Interactive Weather Map
Tropical Storm Tracking
New forecast layout! Learn more

10-Day Weather Forecast

Advertisements
Track Severe Weather on mobile